Terminal Aerodrome Forecast
Issued by NWS Topeka, KS

Home | Current Version | Previous Version | Graphics & Text | Print | Product List | Glossary On
Versions: 1 2 3 4 5 6 7 8 9 10 11 12 13
741
FTUS43 KTOP 222320
TAFTOP
TAF
KTOP 222320Z 2300/2324 19009KT P6SM SCT150
     FM230200 16006KT P6SM SCT150
     FM231400 19010KT P6SM FEW250=

USA.gov is the U.S. government's official web portal to all federal, state and local government web resources and services.